Skip to main content

Search Topomaps Inventory

This database allows you to search for topographic maps by quadrangle (map name). It includes information such as the year of publication, scale, USGS number, latitude and longitude etc. Search terms may be entered in lower case or upper case. Truncation is automatic, so typing "new brun" will retrieve records for "new brunswick".

Enter a search using the text field and options below. Click the Search button to run the query.
Columns can be sorted by clicking on the column name (e.g. Map Name).

Map Name Year Location Scale SE Latitude Sort descending SE Longitude Map Type
CONFIDENCE HILLS EAST, CA 1984 LSM - 1st floor 1:25,000 N354500 W1163000 TOPOGRAPHICAL METRIC
MANLY PEAK, CA 1981 LSM - 1st floor 1:50,000 N354500 W1170000 TOPOGRAPHICAL METRIC
CONFIDENCE HILLS WEST, CA 1985 LSM - 1st floor 1:25,000 N354500 W1163730 TOPOGRAPHICAL METRIC
FORT LANDING, NC 1982 LSM - 1st floor 1:50,000 N354500 W0760000 TOPOGRAPHICAL METRIC
SHENANDOAH PEAK, NV 1985 LSM - 1st floor 1:25,000 N354500 W1153000 TOPOGRAPHICAL METRIC
MANTEO, NC 1980 LSM - 1st floor 1:50,000 N354500 W0753000 TOPOGRAPHICAL METRIC
ROBERSONVILLE EAST, NC 1993 LSM - 1st floor 1:25,000 N354500 W0770730 TOPOGRAPHICAL METRIC
ROBERSONVILLE WEST, NC 1993 LSM - 1st floor 1:25,000 N354500 W0771500 TOPOGRAPHICAL METRIC
ST PAUL, AR 1943 LSM - 1st floor 1:62,500 N354500 W0934500 TOPOGRAPHICAL FEET
TECOPA PASS, CA 1983 LSM - 1st floor 1:25,000 N354500 W1160000 TOPOGRAPHICAL METRIC
IBEX PASS, CA 1984 LSM - 1st floor 1:25,000 N354500 W1161500 TOPOGRAPHICAL METRIC
TECOPA, CA 1983 LSM - 1st floor 1:25,000 N354500 W1160730 TOPOGRAPHICAL METRIC
WILLIAMSTON, NC 1993 LSM - 1st floor 1:25,000 N354500 W0770000 TOPOGRAPHICAL METRIC
WINGATE WASH, CA 1981 LSM - 1st floor 1:50,000 N354500 W1164500 TOPOGRAPHICAL METRIC
IBEX SPRING, CA 1985 LSM - 1st floor 1:25,000 N354500 W1162230 TOPOGRAPHICAL METRIC
MARSHALL, NC 1988 LSM - 1st floor 1:50,000 N354500 W0823000 TOPOGRAPHICAL METRIC
LITTLE LAKE, CA 1983 LSM - 1st floor 1:50,000 N354500 W1174500 TOPOGRAPHICAL METRIC
CAPE SAN MARTIN, CA 1978 LSM - 1st floor 1:50,000 N354500 W1211500 TOPOGRAPHICAL METRIC
RALEIGH, NC 1980 LSM - 1st floor 1:50,000 N354500 W0783000 TOPOGRAPHICAL METRIC
OLD SPARTA, NC 1988 LSM - 1st floor 1:25,000 N354500 W0773000 TOPOGRAPHICAL METRIC
BRYSON, CA 1979 LSM - 1st floor 1:50,000 N354500 W1210000 TOPOGRAPHICAL METRIC
LAMONT PEAK, CA 1983 LSM - 1st floor 1:50,000 N354500 W1180000 TOPOGRAPHICAL METRIC
COPPER QUEEN CANYON, CA 1984 LSM - 1st floor 1:25,000 N354500 W1170730 TOPOGRAPHICAL METRIC
POTOSI, NV 1984 LSM - 1st floor 1:25,000 N355230 W1153000 TOPOGRAPHICAL METRIC
SALSBERRY PEAK, CA 1985 LSM - 1st floor 1:25,000 N355230 W1162230 TOPOGRAPHICAL METRIC
SPEED, NC 1993 LSM - 1st floor 1:25,000 N355230 W0772230 TOPOGRAPHICAL METRIC
ANVIL SPRING CANYON EAST, CA 1985 LSM - 1st floor 1:25,000 N355230 W1164500 TOPOGRAPHICAL METRIC
OAK CITY, NC 2002 LSM - 1st floor 1:25,000 N355230 W0771500 TOPOGRAPHICAL METRIC
ANVIL SPRING CANYON WEST, CA 1985 LSM - 1st floor 1:25,000 N355230 W1165230 TOPOGRAPHICAL METRIC
NORTH OF TECOPA PASS, CA 1983 LSM - 1st floor 1:25,000 N355230 W1160000 TOPOGRAPHICAL METRIC
RESTING SPRING, CA 1983 LSM - 1st floor 1:25,000 N355230 W1160730 TOPOGRAPHICAL METRIC
CALVADA SPRINGS, CA 1984 LSM - 1st floor 1:25,000 N355230 W1155230 TOPOGRAPHICAL METRIC
MANLY FALL, CA 1984 LSM - 1st floor 1:25,000 N355230 W1170730 TOPOGRAPHICAL METRIC
MANLY PEAK, CA 1984 LSM - 1st floor 1:25,000 N355230 W1170000 TOPOGRAPHICAL METRIC
HARTSEASE, NC 1981 LSM - 1st floor 1:25,000 N355230 W0773730 TOPOGRAPHICAL METRIC
TARBORO, NC 1981 LSM - 1st floor 1:25,000 N355230 W0773000 TOPOGRAPHICAL METRIC
EPAULET PEAK, CA 1984 LSM - 1st floor 1:25,000 N355230 W1163000 TOPOGRAPHICAL METRIC
GREEN MONSTER MINE, NV 1984 LSM - 1st floor 1:25,000 N355230 W1153730 TOPOGRAPHICAL METRIC
SHORE LINE BUTTE, CA 1984 LSM - 1st floor 1:25,000 N355230 W1163730 TOPOGRAPHICAL METRIC
HAMILTON, NC 2002 LSM - 1st floor 1:25,000 N355230 W0770730 TOPOGRAPHICAL METRIC
SHOSHONE, CA 1984 LSM - 1st floor 1:25,000 N355230 W1161500 TOPOGRAPHICAL METRIC
QUITSNA, NC 2002 LSM - 1st floor 1:25,000 N355230 W0770000 TOPOGRAPHICAL METRIC
STUMP SPRING, NV 1984 LSM - 1st floor 1:25,000 N355230 W1154500 TOPOGRAPHICAL METRIC
TOADLENA, NM 1996 LSM - 1st floor 1:100,000 N360000 W1080000 MINERALS MANAGEMENT - TOPO
VISALIA, CA 1976 LSM - 1st floor 1:100,000 N360000 W1190000 MINERALS MANAGEMENT - TOPO
DARWIN HILLS, CA 1985 LSM - 1st floor 1:100,000 N360000 W1170000 TOPOGRAPHICAL METRIC
HOOVER DAM, NV 1983 LSM - 1st floor 1:25,000 N360000 W1143730 TOPOGRAPHICAL METRIC
TOADLENA, NM 1996 LSM - 1st floor 1:100,000 N360000 W1080000 SURFACE MANAGEMENT - TOPO
VISALIA, CA 2000 LSM - 1st floor 1:100,000 N360000 W1190000 SURFACE MANAGEMENT - TOPO
DICKSON, TN 1985 LSM - 1st floor 1:100,000 N360000 W0870000 TOPOGRAPHICAL METRIC
MC KENZIE, TN 1986 LSM - 1st floor 1:100,000 N360000 W0880000 TOPOGRAPHICAL METRIC
PARAGOULD, AR 1984 LSM - 1st floor 1:100,000 N360000 W0900000 TOPOGRAPHICAL METRIC
TOADLENA, NM 1980 LSM - 1st floor 1:100,000 N360000 W1080000 TOPOGRAPHICAL METRIC
TULSA, OK 1985 LSM - 1st floor 1:100,000 N360000 W0950000 TOPOGRAPHICAL METRIC
HILLER MOUNTAINS, NV 1983 LSM - 1st floor 1:25,000 N360000 W1140730 TOPOGRAPHICAL METRIC
VISALIA, CA 1993 LSM - 1st floor 1:100,000 N360000 W1190000 TOPOGRAPHICAL METRIC
NORFOLK ATLANTIC COAST, VA 1980 LSM - 1st floor 1:250,000 N360000 W0760000 ECOLOGICAL INVENTORY
DYERSBURG L-136, US 1973 LSM - 1st floor 1:250,000 N360000 W0880000 LAND USE/LAND COVER - BASE
DURHAM NORTH, NC 1980 LSM - 1st floor 1:50,000 N360000 W0784500 TOPOGRAPHICAL METRIC
THE TEMPLE, NV 1983 LSM - 1st floor 1:25,000 N360000 W1141500 TOPOGRAPHICAL METRIC
PETROGLYPH WASH, AZ 1983 LSM - 1st floor 1:25,000 N360000 W1143000 TOPOGRAPHICAL METRIC
NORFOLK L-105, US 1972 LSM - 1st floor 1:250,000 N360000 W0760000 LAND USE/LAND COVER - BASE
DYERSBURG, TN 1956 LSM - 1st floor 1:250,000 N360000 W0880000 TOPOGRAPHICAL FEET
FAIRVIEW, OK 1986 LSM - 1st floor 1:100,000 N360000 W0980000 TOPOGRAPHICAL METRIC
WINSTON SALEM L-108, US 1977 LSM - 1st floor 1:250,000 N360000 W0800000 LAND USE/LAND COVER - BASE
CANYON DE CHELLY, AZ 1984 LSM - 1st floor 1:100,000 N360000 W1090000 TOPOGRAPHICAL METRIC
MOUND SPRING, NV 1984 LSM - 1st floor 1:25,000 N360000 W1155230 TOPOGRAPHICAL METRIC
NORFOLK, VA 1969 LSM - 1st floor 1:250,000 N360000 W0760000 TOPOGRAPHICAL FEET
TULSA, OK 1973 LSM - 1st floor 1:250,000 N360000 W0940000 TOPOGRAPHICAL FEET
WINSTON-SALEM, NC 1953 LSM - 1st floor 1:250,000 N360000 W0800000 TOPOGRAPHICAL FEET
MISSOURI, MO 1973 LSM - 1st floor 1:500,000 N360000 W0893000 STATE BASE - PLANIMETRIC
TWELVEMILE SPRING, CA 1984 LSM - 1st floor 1:25,000 N360000 W1160730 TOPOGRAPHICAL METRIC
BONELLI BAY, AZ 1983 LSM - 1st floor 1:25,000 N360000 W1142230 TOPOGRAPHICAL METRIC
POPLAR BLUFF, MO 1976 LSM - 1st floor 1:250,000 N360000 W0900000 TOPOGRAPHICAL FEET
MISSOURI, MO 1973 LSM - 1st floor 1:500,000 N360000 W0890000 STATE BASE - TOPOGRAPHIC
COALINGA L-146, US 1975 LSM - 1st floor 1:100,000 N360000 W1200000 LAND USE/LAND COVER - BASE
MISSOURI, MO 1973 LSM - 1st floor 1:500,000 N360000 W0893000 SHADED RELIEF MAP
KEYSTONE LAKE, OK 1990 LSM - 1st floor 1:100,000 N360000 W0960000 TOPOGRAPHICAL METRIC
MC EWEN, TN 1981 LSM - 1st floor 1:50,000 N360000 W0873000 TOPOGRAPHICAL METRIC
NASHVILLE, TN 1956 LSM - 1st floor 1:250,000 N360000 W0860000 TOPOGRAPHICAL FEET
PERRYTON, TX 1974 LSM - 1st floor 1:250,000 N360000 W1000000 TOPOGRAPHICAL FEET
MEADVIEW NORTH, AZ 1984 LSM - 1st floor 1:25,000 N360000 W1140000 TOPOGRAPHICAL METRIC
WINDSOR NORTH, NC 1999 LSM - 1st floor 1:25,000 N360000 W0765230 TOPOGRAPHICAL METRIC
COALINGA, CA 1994 LSM - 1st floor 1:100,000 N360000 W1200000 MINERALS MANAGEMENT - TOPO
POINT SUR, CA 1982 LSM - 1st floor 1:100,000 N360000 W1210000 MINERALS MANAGEMENT - TOPO
MC KENZIE, TN 1985 LSM - 1st floor 1:50,000 N360000 W0883000 TOPOGRAPHICAL METRIC
HARRISON, AR 1985 LSM - 1st floor 1:100,000 N360000 W0930000 TOPOGRAPHICAL METRIC
PINON, AZ 1983 LSM - 1st floor 1:100,000 N360000 W1100000 TOPOGRAPHICAL METRIC
COALINGA, CA 1994 LSM - 1st floor 1:100,000 N360000 W1200000 SURFACE MANAGEMENT - TOPO
MONTEREY, CA 1981 LSM - 1st floor 1:250,000 N360000 W1200000 ECOLOGICAL INVENTORY
POINT SUR, CA 1982 LSM - 1st floor 1:100,000 N360000 W1210000 SURFACE MANAGEMENT - TOPO
LOST CABIN SPRING, NV 1984 LSM - 1st floor 1:25,000 N360000 W1153730 TOPOGRAPHICAL METRIC
COALINGA, CA 1979 LSM - 1st floor 1:100,000 N360000 W1200000 TOPOGRAPHICAL METRIC
MONTEREY, CA 1985 LSM - 1st floor 1:250,000 N360000 W1200000 SATELLITE IMAGERY
EASTVILLE ATLANTIC COAST, VA 1980 LSM - 1st floor 1:250,000 N360000 W0750000 ECOLOGICAL INVENTORY
POINT SUR, CA 1982 LSM - 1st floor 1:100,000 N360000 W1210000 TOPOGRAPHICAL METRIC
BOONE, NC 1985 LSM - 1st floor 1:100,000 N360000 W0810000 TOPOGRAPHICAL METRIC
JOHNSON CITY, TN 1980 LSM - 1st floor 1:100,000 N360000 W0820000 TOPOGRAPHICAL METRIC
GRAND CANYON NAT'L PARK & VIC, AZ 1962 LSM - 1st floor 1:62,500 N360000 W1114500 NATL PARK - FEET
WOODWARD, OK 1968 LSM - 1st floor 1:250,000 N360000 W0980000 TOPOGRAPHICAL FEET
STEWART VALLEY, CA 1984 LSM - 1st floor 1:50,000 N360000 W1160000 TOPOGRAPHICAL METRIC
MONTEREY, CA 1974 LSM - 1st floor 1:250,000 N360000 W1200000 TOPOBATHYMETRIC
EASTVILLE L-58, US 1973 LSM - 1st floor 1:250,000 N360000 W0753000 LAND USE/LAND COVER - BASE
LAKE MEAD, NV 1973 LSM - 1st floor 1:100,000 N360000 W1140000 MINERALS MANAGEMENT - TOPO
GRAND CANYON NAT'L. PARK & VIC, AZ 1962 LSM - 1st floor 1:62,500 N360000 W1114500 NATL PARK - FEET
JUNIPERO SERRA PEAK, CA 1978 LSM - 1st floor 1:50,000 N360000 W1211500 TOPOGRAPHICAL METRIC
ROANOKE RAPIDS, NC 1985 LSM - 1st floor 1:100,000 N360000 W0770000 TOPOGRAPHICAL METRIC
GREENFIELD, TN 1985 LSM - 1st floor 1:50,000 N360000 W0884500 TOPOGRAPHICAL METRIC
PERRYTON, TX 1986 LSM - 1st floor 1:100,000 N360000 W1000000 TOPOGRAPHICAL METRIC
GRAND CANYON NAT'L. PARK & VIC, AZ 1962 LSM - 1st floor 1:62,500 N360000 W1114500 NATL PARK - SHADED
MOUNT TRUMBULL, AZ 1986 LSM - 1st floor 1:100,000 N360000 W1130000 TOPOGRAPHICAL METRIC
RATON, NM 1974 LSM - 1st floor 1:250,000 N360000 W1040000 TOPOGRAPHICAL FEET
LAKE MEAD, NV 1987 LSM - 1st floor 1:100,000 N360000 W1140000 TOPOGRAPHICAL METRIC
TUBA CITY, AZ 1983 LSM - 1st floor 1:100,000 N360000 W1110000 TOPOGRAPHICAL METRIC
CHEROKEE VILLAGE, AR 1983 LSM - 1st floor 1:100,000 N360000 W0910000 TOPOGRAPHICAL METRIC
COOKEVILLE, TN 1982 LSM - 1st floor 1:100,000 N360000 W0850000 TOPOGRAPHICAL METRIC
BULL SHOALS LAKE, AR 1985 LSM - 1st floor 1:100,000 N360000 W0920000 TOPOGRAPHICAL METRIC
MOUNTAIN SPRINGS, NV 1984 LSM - 1st floor 1:25,000 N360000 W1153000 TOPOGRAPHICAL METRIC
GRAND CANYON, AZ 1955 LSM - 1st floor 1:250,000 N360000 W1120000 TOPOGRAPHICAL FEET
CURRITUCK SOUND, NC 1985 LSM - 1st floor 1:100,000 N360000 W0750000 TOPOGRAPHICAL METRIC
CURRITUCK SOUND, NC 1969 LSM - 1st floor 1:250,000 N360000 W0740000 TOPOBATHYMETRIC
CHACO CANYON, NM 1992 LSM - 1st floor 1:100,000 N360000 W1070000 MINERALS MANAGEMENT - TOPO
HERMITAGE, TN 1979 LSM - 1st floor 1:50,000 N360000 W0863000 TOPOGRAPHICAL METRIC
HARRISON, AR 1985 LSM - 1st floor 1:250,000 N360000 W0920000 TOPOGRAPHICAL METRIC
TAOS, NM 1994 LSM - 1st floor 1:100,000 N360000 W1050000 MINERALS MANAGEMENT - TOPO
GRAND CANYON, AZ 2001 LSM - 1st floor 1:100,000 N360000 W1120000 SURFACE MANAGEMENT - TOPO
CHACO CANYON, NM 1976 LSM - 1st floor 1:100,000 N360000 W1070000 SURFACE MANAGEMENT - TOPO
HENDERSON, NC 1989 LSM - 1st floor 1:100,000 N360000 W0780000 TOPOGRAPHICAL METRIC
WINSTON-SALEM, NC 1984 LSM - 1st floor 1:100,000 N360000 W0800000 TOPOGRAPHICAL METRIC
DALHART, TX 1975 LSM - 1st floor 1:250,000 N360000 W1020000 TOPOGRAPHICAL FEET
JOHNSON CITY L-104, US 1978 LSM - 1st floor 1:250,000 N360000 W0820000 LAND USE/LAND COVER - BASE
TAOS, NM 1994 LSM - 1st floor 1:100,000 N360000 W1050000 SURFACE MANAGEMENT - TOPO
GRAND CANYON, AZ 1984 LSM - 1st floor 1:100,000 N360000 W1120000 TOPOGRAPHICAL METRIC
CHACO CANYON, NM 1976 LSM - 1st floor 1:100,000 N360000 W1070000 TOPOGRAPHICAL METRIC
HARVEY NECK, NC 1987 LSM - 1st floor 1:25,000 N360000 W0761500 TOPOGRAPHICAL METRIC
CAMDEN, TN 1981 LSM - 1st floor 1:50,000 N360000 W0880000 TOPOGRAPHICAL METRIC
JOHNSON CITY, TN 1957 LSM - 1st floor 1:250,000 N360000 W0820000 TOPOGRAPHICAL FEET
TAOS, NM 1983 LSM - 1st floor 1:100,000 N360000 W1050000 TOPOGRAPHICAL METRIC
LAS VEGAS, NV 1994 LSM - 1st floor 1:100,000 N360000 W1150000 MINERALS MANAGEMENT - TOPO
EDENHOUSE, NC 1982 LSM - 1st floor 1:25,000 N360000 W0763730 TOPOGRAPHICAL METRIC
THREE RIVERS, CA 1980 LSM - 1st floor 1:100,000 N360000 W1180000 MINERALS MANAGEMENT - TOPO
GREENSBORO, NC 1984 LSM - 1st floor 1:100,000 N360000 W0790000 TOPOGRAPHICAL METRIC
LAS VEGAS, NV 1994 LSM - 1st floor 1:100,000 N360000 W1150000 SURFACE MANAGEMENT - TOPO
EDENTON, NC 1981 LSM - 1st floor 1:25,000 N360000 W0763000 TOPOGRAPHICAL METRIC
THREE RIVERS, CA 1980 LSM - 1st floor 1:100,000 N360000 W1180000 SURFACE MANAGEMENT - TOPO
LAS VEGAS, NV 1981 LSM - 1st floor 1:250,000 N360000 W1140000 LINE MAP W/SATELLITE
ENID, OK 1990 LSM - 1st floor 1:100,000 N360000 W0970000 TOPOGRAPHICAL METRIC
LAS VEGAS, NV 1984 LSM - 1st floor 1:100,000 N360000 W1150000 TOPOGRAPHICAL METRIC
CLAYTON, NM 1982 LSM - 1st floor 1:100,000 N360000 W1030000 MINERALS MANAGEMENT - TOPO
NASHVILLE, TN 1980 LSM - 1st floor 1:50,000 N360000 W0864500 TOPOGRAPHICAL METRIC
AZTEC, NM 1980 LSM - 1st floor 1:250,000 N360000 W1060000 LINE MAP W/SATELLITE
THREE RIVERS, CA 1978 LSM - 1st floor 1:100,000 N360000 W1180000 TOPOGRAPHICAL METRIC
MERRY HILL, NC 2000 LSM - 1st floor 1:25,000 N360000 W0764500 TOPOGRAPHICAL METRIC
NASHVILLE, TN 1984 LSM - 1st floor 1:100,000 N360000 W0860000 TOPOGRAPHICAL METRIC
LAS VEGAS, NV 1955 LSM - 1st floor 1:250,000 N360000 W1140000 TOPOGRAPHICAL FEET
SPEARMAN, TX 1986 LSM - 1st floor 1:100,000 N360000 W1010000 TOPOGRAPHICAL METRIC
CLAYTON, NM 1982 LSM - 1st floor 1:100,000 N360000 W1030000 SURFACE MANAGEMENT - TOPO
AZTEC, NM 1976 LSM - 1st floor 1:250,000 N360000 W1060000 TOPOGRAPHICAL FEET
WAVERLY, TN 1981 LSM - 1st floor 1:50,000 N360000 W0874500 TOPOGRAPHICAL METRIC
DALHART, TX 1982 LSM - 1st floor 1:100,000 N360000 W1020000 TOPOGRAPHICAL METRIC
FAYETTEVILLE, AR 1979 LSM - 1st floor 1:100,000 N360000 W0940000 TOPOGRAPHICAL METRIC
CLAYTON, NM 1982 LSM - 1st floor 1:100,000 N360000 W1030000 TOPOGRAPHICAL METRIC
OAK RIDGE, TN 1979 LSM - 1st floor 1:100,000 N360000 W0840000 TOPOGRAPHICAL METRIC
BRIGHT ANGEL, AZ 1962 LSM - 1st floor 1:62,500 N360000 W1120000 SHADED RELIEF MAP
ENID, OK 1976 LSM - 1st floor 1:250,000 N360000 W0960000 TOPOGRAPHICAL FEET
KING CITY, CA 1976 LSM - 1st floor 1:50,000 N360000 W1210000 TOPOGRAPHICAL METRIC
DYERSBURG, TN 1983 LSM - 1st floor 1:100,000 N360000 W0890000 TOPOGRAPHICAL METRIC
DEATH VALLEY JUNCTION, CA 1986 LSM - 1st floor 1:100,000 N360000 W1160000 TOPOGRAPHICAL METRIC
MISSOURI, MO 1969 LSM - 1st floor 1:1,000,000 N360000 W0893000 STATE BASE - PLANIMETRIC
MORRISTOWN, TN 1981 LSM - 1st floor 1:100,000 N360000 W0830000 TOPOGRAPHICAL METRIC
ABIQUIU, NM 1978 LSM - 1st floor 1:100,000 N360000 W1060000 MINERALS MANAGEMENT - TOPO
ELIZABETH CITY, NC 1985 LSM - 1st floor 1:100,000 N360000 W0760000 TOPOGRAPHICAL METRIC
HIDDEN HILLS RANCH, NV 1984 LSM - 1st floor 1:25,000 N360000 W1154500 TOPOGRAPHICAL METRIC
SHIPROCK L-195, US 1976 LSM - 1st floor 1:250,000 N360000 W1080000 LAND USE/LAND COVER - BASE
ABIQUIU, NM 1978 LSM - 1st floor 1:100,000 N360000 W1060000 SURFACE MANAGEMENT - TOPO
SPRINGER, NM 1983 LSM - 1st floor 1:100,000 N360000 W1040000 MINERALS MANAGEMENT - TOPO
SPRINGER, NM 1983 LSM - 1st floor 1:100,000 N360000 W1040000 SURFACE MANAGEMENT - TOPO
MID-ATLANTIC STATES - SHTS 8-9, US 1972 LSM - 1st floor 1:2,000,000 N360000 W0710000 NATIONAL ATLAS SEPARATES
MARBLE CANYON, AZ 1957 LSM - 1st floor 1:250,000 N360000 W1100000 TOPOGRAPHICAL FEET
FRESNO, CA 1971 LSM - 1st floor 1:250,000 N360000 W1180000 TOPOGRAPHICAL FEET
SHIPROCK, NM 1980 LSM - 1st floor 1:250,000 N360000 W1080000 LINE MAP W/SATELLITE
DEATH VALLEY, CA 1956 LSM - 1st floor 1:250,000 N360000 W1160000 TOPOGRAPHICAL FEET
ABIQUIU, NM 1978 LSM - 1st floor 1:100,000 N360000 W1060000 TOPOGRAPHICAL METRIC
SPRINGER, NM 1976 LSM - 1st floor 1:100,000 N360000 W1040000 TOPOGRAPHICAL METRIC
GREENSBORO, NC 1953 LSM - 1st floor 1:250,000 N360000 W0780000 TOPOGRAPHICAL FEET
WOODWARD, OK 1985 LSM - 1st floor 1:100,000 N360000 W0990000 TOPOGRAPHICAL METRIC
NOPAH PEAK, CA 1984 LSM - 1st floor 1:25,000 N360000 W1160000 TOPOGRAPHICAL METRIC
DARWIN HILLS, CA 1979 LSM - 1st floor 1:100,000 N360000 W1170000 MINERALS MANAGEMENT - TOPO
SHIPROCK, NM 1969 LSM - 1st floor 1:250,000 N360000 W1080000 TOPOGRAPHICAL FEET
MT TRUMBULL, AZ 1978 LSM - 1st floor 1:100,000 N360000 W1130000 MINERALS MANAGEMENT - TOPO
YEOPIM RIVER, NC 1987 LSM - 1st floor 1:25,000 N360000 W0762230 TOPOGRAPHICAL METRIC
DICKSON, TN 1981 LSM - 1st floor 1:50,000 N360000 W0871500 TOPOGRAPHICAL METRIC
CORBIN, KY 1956 LSM - 1st floor 1:250,000 N360000 W0840000 TOPOGRAPHICAL FEET
DARWIN HILLS, CA 1999 LSM - 1st floor 1:100,000 N360000 W1170000 SURFACE MANAGEMENT - TOPO
MT TRUMBULL, AZ 2000 LSM - 1st floor 1:100,000 N360000 W1130000 SURFACE MANAGEMENT - TOPO
POWELLSVILLE, NC 2002 LSM - 1st floor 1:25,000 N360730 W0765230 TOPOGRAPHICAL METRIC
MIDDLE POINT, NV 1983 LSM - 1st floor 1:25,000 N360730 W1142230 TOPOGRAPHICAL METRIC
GARRETT BUTTE, NV 1984 LSM - 1st floor 1:25,000 N360730 W1141500 TOPOGRAPHICAL METRIC
COLERAIN, NC 2000 LSM - 1st floor 1:25,000 N360730 W0764500 TOPOGRAPHICAL METRIC
PAHRUMP NE, NV 1984 LSM - 1st floor 1:25,000 N360730 W1154500 TOPOGRAPHICAL METRIC